Time;durP1;ratioP1;P1;durP2;ratioP2;P2;SDS_P1;SDS_P2;PMS_P1;PMS_P2;Temp;Humidity;BMP_temperature;BMP_pressure;BME280_temperature;BME280_humidity;BME280_pressure;Samples;Min_cycle;Max_cycle;Signal;HPM_P1;HPM_P2
2022/11/11 00:02:24;;;;;;;;;;;;;;;4.84;99.99;97892.72;5068568;28;19985;-72
2022/11/11 00:04:49;;;;;;;;;;;;;;;4.83;100.00;97895.44;5064168;28;19989;-71
2022/11/11 00:07:15;;;;;;;;;;;;;;;4.81;99.89;97889.59;5061901;28;20028;-71
2022/11/11 00:09:41;;;;;;;;;;;;;;;4.79;99.57;97894.94;5057914;28;20035;-71
2022/11/11 00:12:07;;;;;;;;;;;;;;;4.78;99.84;97895.06;5069447;28;19971;-71
2022/11/11 00:14:33;;;;;;;;;;;;;;;4.76;100.00;97889.22;5062997;28;20396;-71
2022/11/11 00:25:13;;;;;;;;;;;;;;;4.66;100.00;97890.09;5063692;28;19956;-72
2022/11/11 00:27:39;;;;;;;;;;;;;;;4.65;100.00;97887.63;5064825;28;19948;-72
2022/11/11 00:30:05;;;;;;;;;;;;;;;4.64;100.00;97885.97;5061948;28;19982;-71
2022/11/11 00:32:32;;;;;;;;;;;;;;;4.62;100.00;97886.13;5061969;28;19958;-71
2022/11/11 00:37:43;;;;;;;;;;;;;;;4.61;100.00;97894.06;5045950;28;19953;-71
2022/11/11 00:40:10;;;;;;;;;;;;;;;4.59;100.00;97903.78;5062211;28;19969;-71
2022/11/11 00:42:36;;;;;;;;;;;;;;;4.56;100.00;97901.50;5064957;28;19948;-71
2022/11/11 00:45:02;;;;;;;;;;;;;;;4.55;100.00;97902.44;5063709;28;20394;-71
2022/11/11 00:52:56;;;;;;;;;;;;;;;4.47;100.00;97901.38;5062901;28;20416;-71
2022/11/11 00:55:22;;;;;;;;;;;;;;;4.46;100.00;97911.91;5064713;28;19959;-71
2022/11/11 00:57:48;;;;;;;;;;;;;;;4.46;100.00;97922.31;5069770;28;19954;-71
2022/11/11 01:00:14;;;;;;;;;;;;;;;4.43;100.00;97913.03;5066862;28;20025;-71
2022/11/11 01:02:40;;;;;;;;;;;;;;;4.41;100.00;97921.91;5063246;28;19959;-71
2022/11/11 01:05:06;;;;;;;;;;;;;;;4.38;100.00;97909.22;5065629;28;19956;-71
2022/11/11 01:07:32;;;;;;;;;;;;;;;4.36;99.84;97916.31;5065026;28;19958;-71
2022/11/11 01:09:58;;;;;;;;;;;;;;;4.34;99.57;97919.06;5063383;28;20005;-71
2022/11/11 01:12:24;;;;;;;;;;;;;;;4.33;99.07;97914.03;5066728;28;20056;-71
2022/11/11 01:14:50;;;;;;;;;;;;;;;4.32;99.35;97915.78;5069197;28;20002;-71
2022/11/11 01:17:15;;;;;;;;;;;;;;;4.32;99.34;97904.59;5066068;28;20398;-71
2022/11/11 01:19:41;;;;;;;;;;;;;;;4.32;99.23;97904.59;5065749;28;20365;-71
2022/11/11 01:22:07;;;;;;;;;;;;;;;4.29;99.42;97912.66;5068027;28;20367;-71
2022/11/11 01:24:33;;;;;;;;;;;;;;;4.25;99.33;97912.94;5062721;28;19965;-72
2022/11/11 01:26:59;;;;;;;;;;;;;;;4.23;99.47;97908.84;5059277;28;20012;-73
2022/11/11 01:29:25;;;;;;;;;;;;;;;4.19;99.29;97913.50;5065097;28;19975;-71
2022/11/11 01:31:50;;;;;;;;;;;;;;;4.18;99.49;97922.25;5070660;28;19979;-72
2022/11/11 01:34:16;;;;;;;;;;;;;;;4.20;100.00;97933.34;5067761;28;19955;-71
2022/11/11 01:36:42;;;;;;;;;;;;;;;4.21;100.00;97934.94;5058728;28;19955;-72
2022/11/11 01:39:08;;;;;;;;;;;;;;;4.22;100.00;97933.16;5066344;28;19953;-71
2022/11/11 01:41:37;;;;;;;;;;;;;;;4.22;100.00;97941.81;5064847;28;20433;-71
2022/11/11 01:44:06;;;;;;;;;;;;;;;4.23;100.00;97937.41;5070005;28;19954;-71
2022/11/11 01:46:44;;;;;;;;;;;;;;;4.25;100.00;97933.72;5067470;28;19951;-71
2022/11/11 01:49:19;;;;;;;;;;;;;;;4.26;100.00;97930.16;5057285;28;19948;-71
2022/11/11 01:51:48;;;;;;;;;;;;;;;4.24;100.00;97926.06;5061976;28;20296;-71
2022/11/11 01:54:23;;;;;;;;;;;;;;;4.23;100.00;97925.25;5064796;28;19957;-71
2022/11/11 01:56:50;;;;;;;;;;;;;;;4.25;100.00;97931.13;5067583;28;19945;-71
2022/11/11 01:59:17;;;;;;;;;;;;;;;4.25;100.00;97931.13;5068307;28;19953;-72
2022/11/11 02:01:43;;;;;;;;;;;;;;;4.25;100.00;97936.31;5046631;28;19961;-72
2022/11/11 02:06:56;;;;;;;;;;;;;;;4.23;100.00;97940.81;5060361;28;19967;-72
2022/11/11 02:09:23;;;;;;;;;;;;;;;4.24;100.00;97934.69;5067699;28;19978;-72
2022/11/11 02:14:41;;;;;;;;;;;;;;;4.24;100.00;97920.84;5061186;28;19954;-72
2022/11/11 02:17:08;;;;;;;;;;;;;;;4.25;100.00;97918.13;5045560;28;20013;-72
2022/11/11 02:19:42;;;;;;;;;;;;;;;4.27;100.00;97915.41;5065030;28;20408;-71
2022/11/11 02:22:11;;;;;;;;;;;;;;;4.27;100.00;97913.63;5043089;28;19953;-72
2022/11/11 02:24:38;;;;;;;;;;;;;;;4.27;100.00;97911.00;5065663;28;19956;-72
2022/11/11 02:27:07;;;;;;;;;;;;;;;4.28;100.00;97919.63;5064216;28;19953;-72
2022/11/11 02:29:34;;;;;;;;;;;;;;;4.27;100.00;97911.00;5065808;28;19950;-72
2022/11/11 02:32:00;;;;;;;;;;;;;;;4.27;100.00;97918.00;5065201;28;19959;-72
2022/11/11 02:34:32;;;;;;;;;;;;;;;4.27;100.00;97921.41;5062221;28;20443;-72
2022/11/11 02:37:00;;;;;;;;;;;;;;;4.28;100.00;97922.22;5065878;28;20403;-72
2022/11/11 02:39:26;;;;;;;;;;;;;;;4.27;100.00;97924.00;5068135;28;19959;-71
2022/11/11 02:41:58;;;;;;;;;;;;;;;4.28;100.00;97924.81;5059735;28;19949;-72
2022/11/11 02:44:24;;;;;;;;;;;;;;;4.29;100.00;97923.06;5063585;28;19976;-72
2022/11/11 02:46:50;;;;;;;;;;;;;;;4.29;100.00;97928.25;5066245;28;19945;-72
2022/11/11 02:49:16;;;;;;;;;;;;;;;4.27;100.00;97924.00;5064512;28;20420;-72
2022/11/11 02:51:42;;;;;;;;;;;;;;;4.29;100.00;97930.84;5060302;28;19952;-73
2022/11/11 02:54:08;;;;;;;;;;;;;;;4.26;100.00;97921.53;5069867;28;20295;-71
2022/11/11 02:59:20;;;;;;;;;;;;;;;4.26;100.00;97924.13;5064734;28;19952;-71
2022/11/11 03:01:46;;;;;;;;;;;;;;;4.25;100.00;97922.50;5064955;28;19962;-72
2022/11/11 03:04:12;;;;;;;;;;;;;;;4.24;100.00;97931.25;5060268;28;19958;-71
2022/11/11 03:06:38;;;;;;;;;;;;;;;4.23;100.00;97934.81;5069368;28;19950;-72
2022/11/11 03:09:04;;;;;;;;;;;;;;;4.21;100.00;97932.34;5062677;28;20022;-71
2022/11/11 03:11:30;;;;;;;;;;;;;;;4.19;100.00;97933.47;5062476;28;20461;-71
2022/11/11 03:13:57;;;;;;;;;;;;;;;4.19;100.00;97936.88;5063323;28;20043;-71
2022/11/11 03:19:07;;;;;;;;;;;;;;;4.13;100.00;97929.63;5047600;28;20325;-72
2022/11/11 03:21:33;;;;;;;;;;;;;;;4.09;100.00;97924.88;5062152;28;19972;-72
2022/11/11 03:23:58;;;;;;;;;;;;;;;3.98;100.00;97926.66;5067448;28;20323;-72
2022/11/11 03:26:24;;;;;;;;;;;;;;;3.85;100.00;97926.97;5057189;28;19946;-72
2022/11/11 03:28:50;;;;;;;;;;;;;;;3.80;100.00;97931.75;5059199;28;19955;-71
2022/11/11 03:31:16;;;;;;;;;;;;;;;3.74;100.00;97923.69;5065123;28;19950;-72
2022/11/11 03:33:42;;;;;;;;;;;;;;;3.61;100.00;97921.38;5063640;28;19952;-72
2022/11/11 03:36:08;;;;;;;;;;;;;;;3.45;100.00;97924.53;5061748;28;19976;-72
2022/11/11 03:38:34;;;;;;;;;;;;;;;3.38;100.00;97926.84;5059921;28;19976;-72
2022/11/11 03:41:00;;;;;;;;;;;;;;;3.42;100.00;97928.22;5068268;28;19961;-72
2022/11/11 03:43:28;;;;;;;;;;;;;;;3.48;100.00;97926.03;5049611;28;20006;-72
2022/11/11 03:45:55;;;;;;;;;;;;;;;3.51;100.00;97928.34;5059463;28;19957;-72
2022/11/11 03:48:21;;;;;;;;;;;;;;;3.56;100.00;97921.78;5060944;28;19955;-72
2022/11/11 03:50:48;;;;;;;;;;;;;;;3.57;100.00;97923.44;5063300;28;19953;-73
2022/11/11 03:53:15;;;;;;;;;;;;;;;3.51;100.00;97921.41;5069370;28;20076;-73
2022/11/11 03:55:41;;;;;;;;;;;;;;;3.45;100.00;97922.75;5061806;28;19961;-73
2022/11/11 03:58:06;;;;;;;;;;;;;;;3.44;100.00;97920.28;5059446;28;20330;-73
2022/11/11 04:00:33;;;;;;;;;;;;;;;3.45;100.00;97927.13;5062081;28;20057;-73
2022/11/11 04:11:28;;;;;;;;;;;;;;;3.32;100.00;97917.03;5063325;28;19964;-73
2022/11/11 04:16:40;;;;;;;;;;;;;;;3.37;100.00;97922.59;5053217;28;20399;-73
2022/11/11 04:21:50;;;;;;;;;;;;;;;3.43;100.00;97931.63;5049468;28;20484;-73
2022/11/11 04:27:03;;;;;;;;;;;;;;;3.42;100.00;97941.19;5061061;28;20332;-73
2022/11/11 04:29:30;;;;;;;;;;;;;;;3.42;100.00;97937.75;5068697;28;19948;-72
2022/11/11 04:34:57;;;;;;;;;;;;;;;3.41;100.00;97934.34;5024592;28;19954;-72
2022/11/11 04:37:23;;;;;;;;;;;;;;;3.39;100.00;97931.06;5065725;28;19955;-72
2022/11/11 04:42:34;;;;;;;;;;;;;;;3.35;100.00;97929.72;5054337;28;20017;-72
2022/11/11 04:47:52;;;;;;;;;;;;;;;3.33;100.00;97934.22;5066795;28;19949;-73
2022/11/11 04:50:18;;;;;;;;;;;;;;;3.33;100.00;97934.22;5067328;28;19958;-73
2022/11/11 04:52:44;;;;;;;;;;;;;;;3.33;100.00;97936.81;5062325;28;19959;-72
2022/11/11 04:57:54;;;;;;;;;;;;;;;3.31;100.00;97936.13;5049291;28;20392;-72
2022/11/11 05:00:20;;;;;;;;;;;;;;;3.25;100.00;97940.09;5048406;28;20019;-72
2022/11/11 05:08:54;;;;;;;;;;;;;;;3.20;100.00;97952.63;5067748;28;19956;-72
2022/11/11 05:11:01;;;;;;;;;;;;;;;3.14;100.00;97955.75;5070307;28;19967;-72
2022/11/11 05:21:49;;;;;;;;;;;;;;;3.05;100.00;97972.09;5064640;28;19975;-72
2022/11/11 05:27:00;;;;;;;;;;;;;;;3.03;100.00;97979.19;5055694;28;19953;-72
2022/11/11 05:29:26;;;;;;;;;;;;;;;3.00;100.00;97982.88;5061563;28;19985;-72
2022/11/11 05:31:51;;;;;;;;;;;;;;;2.97;100.00;97979.72;5065564;28;20003;-72
2022/11/11 05:34:17;;;;;;;;;;;;;;;2.98;100.00;97991.72;5068841;28;20422;-72
2022/11/11 05:36:43;;;;;;;;;;;;;;;2.97;100.00;97984.91;5066807;28;19956;-71
2022/11/11 05:39:09;;;;;;;;;;;;;;;2.96;99.85;97994.44;5064218;28;19984;-71
2022/11/11 05:41:35;;;;;;;;;;;;;;;2.96;100.00;97998.78;5062964;28;20003;-71
2022/11/11 05:44:01;;;;;;;;;;;;;;;2.95;100.00;97997.16;5070605;28;19976;-71
2022/11/11 05:46:26;;;;;;;;;;;;;;;2.94;100.00;98004.13;5064730;28;19951;-72
2022/11/11 05:51:37;;;;;;;;;;;;;;;2.93;100.00;98017.22;5058132;28;20411;-71
2022/11/11 05:54:02;;;;;;;;;;;;;;;2.90;100.00;98025.22;5062031;28;19955;-72
2022/11/11 05:56:28;;;;;;;;;;;;;;;2.89;100.00;98036.56;5060134;28;19956;-73
2022/11/11 05:58:54;;;;;;;;;;;;;;;2.87;100.00;98033.28;5067019;28;19951;-72
2022/11/11 06:01:20;;;;;;;;;;;;;;;2.85;100.00;98041.16;5067023;28;19973;-72
2022/11/11 06:03:46;;;;;;;;;;;;;;;2.83;100.00;98045.66;5060252;28;19995;-72
2022/11/11 06:06:12;;;;;;;;;;;;;;;2.84;100.00;98044.72;5047970;28;19960;-72
2022/11/11 06:08:38;;;;;;;;;;;;;;;2.80;100.00;98041.56;5069164;28;20423;-72
2022/11/11 06:11:04;;;;;;;;;;;;;;;2.79;100.00;98037.34;5062161;28;19955;-72
2022/11/11 06:13:30;;;;;;;;;;;;;;;2.78;99.99;98035.69;5065472;28;20329;-72
2022/11/11 06:15:56;;;;;;;;;;;;;;;2.79;99.95;98037.34;5068308;28;19999;-74
2022/11/11 06:18:22;;;;;;;;;;;;;;;2.80;100.00;98043.34;5059101;28;19959;-72
2022/11/11 06:20:51;;;;;;;;;;;;;;;2.79;100.00;98049.47;5061115;28;20058;-72
2022/11/11 06:23:17;;;;;;;;;;;;;;;2.78;100.00;98053.00;5064099;28;19962;-72
2022/11/11 06:28:27;;;;;;;;;;;;;;;2.77;100.00;98062.56;5068915;28;19956;-72
2022/11/11 06:30:53;;;;;;;;;;;;;;;2.80;100.00;98064.06;5067258;28;20424;-71
2022/11/11 06:33:20;;;;;;;;;;;;;;;2.80;100.00;98056.28;5058296;28;20001;-72
2022/11/11 06:35:46;;;;;;;;;;;;;;;2.85;100.00;98061.91;5066390;28;19959;-72
2022/11/11 06:38:12;;;;;;;;;;;;;;;2.86;100.00;98063.56;5064019;28;19954;-71
2022/11/11 06:40:38;;;;;;;;;;;;;;;2.89;100.00;98065.06;5063926;28;19966;-72
2022/11/11 06:43:04;;;;;;;;;;;;;;;2.91;100.00;98069.16;5065893;28;19950;-71
2022/11/11 06:45:32;;;;;;;;;;;;;;;2.93;100.00;98067.25;5061517;28;19950;-71
2022/11/11 06:47:58;;;;;;;;;;;;;;;2.96;100.00;98059.25;5059606;28;19962;-71
2022/11/11 06:50:24;;;;;;;;;;;;;;;2.98;100.00;98067.72;5064149;28;20346;-71
2022/11/11 06:52:50;;;;;;;;;;;;;;;3.01;100.00;98066.63;5069872;28;19960;-72
2022/11/11 06:55:16;;;;;;;;;;;;;;;3.06;100.00;98067.03;5062371;28;19994;-72
2022/11/11 06:57:42;;;;;;;;;;;;;;;3.08;100.00;98067.72;5063796;28;20009;-72
2022/11/11 07:00:08;;;;;;;;;;;;;;;3.12;100.00;98071.69;5062228;28;20321;-72
2022/11/11 07:02:34;;;;;;;;;;;;;;;3.16;100.00;98075.69;5066121;28;19975;-71
2022/11/11 07:04:59;;;;;;;;;;;;;;;3.19;100.00;98079.78;5065697;28;20375;-72
2022/11/11 07:07:25;;;;;;;;;;;;;;;3.23;100.00;98075.97;5060669;28;19949;-72
2022/11/11 07:09:51;;;;;;;;;;;;;;;3.28;100.00;98085.97;5064346;28;20050;-71
2022/11/11 07:12:17;;;;;;;;;;;;;;;3.32;100.00;98089.91;5068634;28;20046;-71
2022/11/11 07:14:43;;;;;;;;;;;;;;;3.38;100.00;98085.06;5044328;28;19999;-71
2022/11/11 07:17:09;;;;;;;;;;;;;;;3.45;100.00;98088.75;5057776;28;19953;-72
2022/11/11 07:19:35;;;;;;;;;;;;;;;3.52;100.00;98089.03;5063070;28;20477;-72
2022/11/11 07:22:00;;;;;;;;;;;;;;;3.57;100.00;98094.66;5065334;28;20001;-72
2022/11/11 07:24:26;;;;;;;;;;;;;;;3.58;100.00;98092.88;5064663;28;19955;-72
2022/11/11 07:26:52;;;;;;;;;;;;;;;3.61;100.00;98093.44;5059163;28;19948;-72
2022/11/11 07:29:18;;;;;;;;;;;;;;;3.65;100.00;98101.75;5063742;28;20405;-73
2022/11/11 07:31:44;;;;;;;;;;;;;;;3.70;100.00;98098.78;5063329;28;19955;-73
2022/11/11 07:34:10;;;;;;;;;;;;;;;3.74;100.00;98100.97;5066988;28;20418;-73
2022/11/11 07:36:36;;;;;;;;;;;;;;;3.77;100.00;98099.88;5064165;28;19958;-73
2022/11/11 07:39:02;;;;;;;;;;;;;;;3.80;100.00;98102.19;5056506;28;19960;-73
2022/11/11 07:41:28;;;;;;;;;;;;;;;3.83;100.00;98105.34;5060533;28;20338;-72
2022/11/11 07:43:54;;;;;;;;;;;;;;;3.88;100.00;98102.34;5066406;28;19949;-72
2022/11/11 07:46:20;;;;;;;;;;;;;;;3.93;100.00;98099.38;5067151;28;19953;-72
2022/11/11 07:48:46;;;;;;;;;;;;;;;4.30;100.00;98101.28;5058432;28;20041;-73
2022/11/11 07:51:11;;;;;;;;;;;;;;;4.74;100.00;98097.25;5062122;28;20452;-72
2022/11/11 07:53:37;;;;;;;;;;;;;;;4.95;100.00;98098.88;5062617;28;20303;-72
2022/11/11 07:56:03;;;;;;;;;;;;;;;5.12;100.00;98102.50;5062182;28;19955;-72
2022/11/11 07:58:29;;;;;;;;;;;;;;;5.12;100.00;98098.13;5069262;28;19953;-73
2022/11/11 08:00:58;;;;;;;;;;;;;;;5.08;100.00;98095.00;5062800;28;19964;-73
2022/11/11 08:03:23;;;;;;;;;;;;;;;5.13;100.00;98111.97;5059741;28;19951;-73
2022/11/11 08:05:49;;;;;;;;;;;;;;;5.36;100.00;98102.81;5068982;28;20364;-73
2022/11/11 08:08:15;;;;;;;;;;;;;;;5.34;98.59;98101.34;5070480;28;20053;-73
2022/11/11 08:10:41;;;;;;;;;;;;;;;5.17;99.17;98111.53;5072111;28;19959;-73
2022/11/11 08:15:54;;;;;;;;;;;;;;;4.95;99.00;98107.47;5059019;28;19959;-73
2022/11/11 08:18:20;;;;;;;;;;;;;;;4.92;100.00;98107.78;5067067;28;20400;-74
2022/11/11 08:20:46;;;;;;;;;;;;;;;5.00;100.00;98107.06;5049115;28;19986;-73
2022/11/11 08:23:13;;;;;;;;;;;;;;;5.08;100.00;98109.75;5070043;28;20460;-73
2022/11/11 08:25:39;;;;;;;;;;;;;;;5.15;100.00;98100.44;5064706;28;19954;-73
2022/11/11 08:28:05;;;;;;;;;;;;;;;5.19;100.00;98109.59;5062644;28;20069;-73
2022/11/11 08:30:32;;;;;;;;;;;;;;;5.29;100.00;98106.94;5064152;28;19952;-73
2022/11/11 08:32:58;;;;;;;;;;;;;;;5.33;100.00;98100.50;5062281;28;19951;-74
2022/11/11 08:35:24;;;;;;;;;;;;;;;5.39;100.00;98097.31;5045405;28;19951;-73
2022/11/11 08:37:50;;;;;;;;;;;;;;;5.49;100.00;98105.09;5068621;28;19952;-73
2022/11/11 08:40:16;;;;;;;;;;;;;;;5.58;100.00;98096.41;5067935;28;20408;-74
2022/11/11 08:42:42;;;;;;;;;;;;;;;5.67;99.73;98102.56;5066118;28;20419;-73
2022/11/11 08:45:11;;;;;;;;;;;;;;;5.74;100.00;98105.38;5065710;28;19950;-74
2022/11/11 08:47:37;;;;;;;;;;;;;;;5.81;100.00;98096.00;5066877;28;19963;-74
2022/11/11 08:50:04;;;;;;;;;;;;;;;5.85;100.00;98092.97;5071865;28;19951;-74
2022/11/11 08:52:30;;;;;;;;;;;;;;;5.89;100.00;98086.50;5068209;28;19971;-73
2022/11/11 08:54:55;;;;;;;;;;;;;;;5.95;100.00;98090.34;5064106;28;19956;-73
2022/11/11 08:57:21;;;;;;;;;;;;;;;5.95;99.60;98084.31;5063742;28;20367;-73
2022/11/11 08:59:47;;;;;;;;;;;;;;;5.99;100.00;98083.06;5066579;28;20037;-73
2022/11/11 09:02:14;;;;;;;;;;;;;;;6.00;98.80;98074.25;5065065;28;20011;-73
2022/11/11 09:04:40;;;;;;;;;;;;;;;5.93;98.85;98075.78;5066967;28;19948;-73
2022/11/11 09:07:06;;;;;;;;;;;;;;;5.95;100.00;98076.50;5064328;28;19961;-73
2022/11/11 09:09:32;;;;;;;;;;;;;;;5.96;100.00;98076.31;5065610;28;20480;-73
2022/11/11 09:11:58;;;;;;;;;;;;;;;5.95;100.00;98074.72;5066186;28;19957;-73
2022/11/11 09:14:24;;;;;;;;;;;;;;;5.99;100.00;98076.06;5066848;28;19963;-73
2022/11/11 09:16:50;;;;;;;;;;;;;;;6.07;100.00;98077.91;5068249;28;19991;-73
2022/11/11 09:19:16;;;;;;;;;;;;;;;6.15;100.00;98080.56;5067111;28;19986;-72
2022/11/11 09:21:41;;;;;;;;;;;;;;;6.20;100.00;98072.34;5040074;28;20014;-73
2022/11/11 09:24:08;;;;;;;;;;;;;;;6.21;100.00;98069.56;5067813;28;19956;-74
2022/11/11 09:26:33;;;;;;;;;;;;;;;6.26;100.00;98075.16;5051137;28;19947;-73
2022/11/11 09:28:59;;;;;;;;;;;;;;;6.36;100.00;98075.06;5066972;28;19952;-73
2022/11/11 09:31:25;;;;;;;;;;;;;;;6.40;100.00;98076.38;5066953;28;19953;-72
2022/11/11 09:33:51;;;;;;;;;;;;;;;6.48;100.00;98073.03;5029184;28;19945;-73
2022/11/11 09:36:17;;;;;;;;;;;;;;;6.56;100.00;98075.69;5037644;28;19966;-73
2022/11/11 09:38:43;;;;;;;;;;;;;;;6.71;100.00;98075.97;5038125;28;19961;-73
2022/11/11 09:41:36;;;;;;;;;;;;;;;6.84;100.00;98072.94;5074932;28;20061;-73
2022/11/11 09:44:02;;;;;;;;;;;;;;;7.04;100.00;98078.78;5064741;28;19949;-73
2022/11/11 09:46:47;;;;;;;;;;;;;;;7.26;100.00;98066.97;5044479;28;19948;-73
2022/11/11 09:49:16;;;;;;;;;;;;;;;7.51;100.00;98068.69;5062195;28;19950;-73
2022/11/11 09:52:00;;;;;;;;;;;;;;;7.75;100.00;98061.94;5070820;28;19949;-73
2022/11/11 09:54:31;;;;;;;;;;;;;;;7.95;97.79;98045.97;5071429;28;19956;-74
2022/11/11 09:57:01;;;;;;;;;;;;;;;8.06;97.51;98050.84;5050723;28;19954;-73
2022/11/11 09:59:31;;;;;;;;;;;;;;;8.15;96.60;98047.28;5060880;28;19960;-73
2022/11/11 10:01:58;;;;;;;;;;;;;;;8.14;96.44;98053.47;5042713;28;20365;-73
2022/11/11 10:04:44;;;;;;;;;;;;;;;8.23;98.85;98060.34;5064047;28;20297;-73
2022/11/11 10:07:19;;;;;;;;;;;;;;;8.49;98.04;98038.47;5051588;28;19954;-73
2022/11/11 10:09:54;;;;;;;;;;;;;;;8.67;95.87;98030.44;5059809;28;19972;-73
2022/11/11 10:12:22;;;;;;;;;;;;;;;8.87;96.27;98030.88;5053068;28;20322;-73
2022/11/11 10:14:51;;;;;;;;;;;;;;;8.96;93.75;98029.88;5063705;28;19953;-73
2022/11/11 10:17:26;;;;;;;;;;;;;;;8.94;94.59;98039.69;5063811;28;19965;-73
2022/11/11 10:20:12;;;;;;;;;;;;;;;8.93;95.61;98044.13;5066426;28;19946;-73
2022/11/11 10:22:40;;;;;;;;;;;;;;;8.95;94.41;98043.94;5067719;28;19967;-72
2022/11/11 10:25:12;;;;;;;;;;;;;;;8.95;95.30;98041.34;5060904;28;19956;-73
2022/11/11 10:27:39;;;;;;;;;;;;;;;9.02;94.22;98036.25;5046340;28;19955;-73
2022/11/11 10:30:18;;;;;;;;;;;;;;;9.03;93.73;98032.63;5064310;28;19949;-73
2022/11/11 10:32:46;;;;;;;;;;;;;;;9.06;94.29;98040.97;5062774;28;19955;-72
2022/11/11 10:35:15;;;;;;;;;;;;;;;9.09;95.05;98040.63;5068312;28;19959;-73
2022/11/11 10:37:41;;;;;;;;;;;;;;;9.23;96.36;98041.72;5066085;28;19953;-72
2022/11/11 10:40:16;;;;;;;;;;;;;;;9.38;94.68;98036.59;5063837;28;19954;-72
2022/11/11 10:42:42;;;;;;;;;;;;;;;9.53;94.63;98034.06;5065405;28;19972;-72
2022/11/11 10:45:13;;;;;;;;;;;;;;;9.65;94.40;98030.06;5064208;28;19954;-72
2022/11/11 10:47:44;;;;;;;;;;;;;;;9.69;93.40;98022.69;5045855;28;19952;-72
2022/11/11 10:50:15;;;;;;;;;;;;;;;9.71;93.97;98037.22;5066520;28;19956;-72
2022/11/11 10:52:53;;;;;;;;;;;;;;;9.73;93.07;98035.25;5067072;28;20437;-73
2022/11/11 10:55:31;;;;;;;;;;;;;;;9.68;93.44;98027.13;5066512;28;19973;-72
2022/11/11 10:58:17;;;;;;;;;;;;;;;9.68;92.78;98026.28;5058037;28;19955;-73
2022/11/11 11:00:45;;;;;;;;;;;;;;;9.67;94.55;98028.09;5043768;28;19946;-72
2022/11/11 11:03:11;;;;;;;;;;;;;;;9.76;95.51;98031.47;5059994;28;19963;-73
2022/11/11 11:05:52;;;;;;;;;;;;;;;9.88;93.82;98018.78;5067113;28;19961;-72
2022/11/11 11:08:30;;;;;;;;;;;;;;;9.99;94.74;98030.66;5069999;28;19991;-72
2022/11/11 11:10:58;;;;;;;;;;;;;;;10.07;92.34;98013.06;5065906;28;19956;-72
2022/11/11 11:13:29;;;;;;;;;;;;;;;10.18;92.07;98011.84;5065354;28;19951;-72
2022/11/11 11:15:57;;;;;;;;;;;;;;;10.39;93.56;98015.63;5064802;28;20299;-72
2022/11/11 11:18:24;;;;;;;;;;;;;;;10.50;93.28;98007.34;5062401;28;20428;-72
2022/11/11 11:20:57;;;;;;;;;;;;;;;10.66;92.33;98003.72;5063001;28;20322;-72
2022/11/11 11:23:35;;;;;;;;;;;;;;;10.73;90.83;97991.50;5069524;28;19971;-72
2022/11/11 11:26:03;;;;;;;;;;;;;;;10.74;91.12;97995.78;5059000;28;19955;-72
2022/11/11 11:28:29;;;;;;;;;;;;;;;10.75;91.28;97997.38;5067100;28;19951;-72
2022/11/11 11:31:03;;;;;;;;;;;;;;;10.81;92.27;97999.28;5066419;28;20316;-73
2022/11/11 11:33:47;;;;;;;;;;;;;;;10.82;91.58;97995.69;5054792;28;19949;-72
2022/11/11 11:36:15;;;;;;;;;;;;;;;10.87;92.80;98005.66;5062583;28;19974;-73
2022/11/11 11:38:42;;;;;;;;;;;;;;;10.95;92.18;97993.22;5060825;28;19958;-73
2022/11/11 11:41:08;;;;;;;;;;;;;;;11.01;91.54;97988.28;5065001;28;19957;-72
2022/11/11 11:43:38;;;;;;;;;;;;;;;11.02;92.05;97997.75;5068813;28;19955;-72
2022/11/11 11:46:26;;;;;;;;;;;;;;;11.00;91.50;98002.38;5059687;28;19977;-72
2022/11/11 11:49:16;;;;;;;;;;;;;;;11.15;97.85;98003.19;5057923;28;19955;-72
2022/11/11 11:52:08;;;;;;;;;;;;;;;11.56;96.99;98011.34;5063569;28;19950;-72
2022/11/11 11:54:50;;;;;;;;;;;;;;;11.91;89.61;97972.09;5040824;28;20395;-72
2022/11/11 11:57:34;;;;;;;;;;;;;;;12.06;91.74;97990.44;5043794;28;19945;-72
2022/11/11 12:00:18;;;;;;;;;;;;;;;12.29;91.66;97989.41;5062518;28;19947;-72
2022/11/11 12:02:56;;;;;;;;;;;;;;;12.53;90.63;97978.44;5045334;28;19960;-72
2022/11/11 12:05:40;;;;;;;;;;;;;;;12.72;88.89;97973.50;5063935;28;19960;-73
2022/11/11 12:08:24;;;;;;;;;;;;;;;12.88;88.87;97981.09;5063776;28;19986;-73
2022/11/11 12:11:00;;;;;;;;;;;;;;;12.85;88.15;97967.50;5064169;28;19955;-73
2022/11/11 12:13:37;;;;;;;;;;;;;;;12.73;86.58;97959.34;5060354;28;19945;-73
2022/11/11 12:16:21;;;;;;;;;;;;;;;12.57;86.49;97968.34;5062754;28;19948;-73
2022/11/11 12:18:47;;;;;;;;;;;;;;;12.42;87.15;97970.28;5064019;28;19963;-73
2022/11/11 12:21:14;;;;;;;;;;;;;;;12.30;89.09;97973.41;5057409;28;19949;-73
2022/11/11 12:24:00;;;;;;;;;;;;;;;12.24;88.92;97970.75;5064724;28;20267;-73
2022/11/11 12:26:43;;;;;;;;;;;;;;;12.22;89.60;97980.66;5061921;28;19954;-73
2022/11/11 12:29:15;;;;;;;;;;;;;;;12.20;88.74;97970.34;5066900;28;20406;-73
2022/11/11 12:31:58;;;;;;;;;;;;;;;12.19;89.54;97980.03;5062378;28;19947;-73
2022/11/11 12:34:24;;;;;;;;;;;;;;;12.19;89.07;97976.59;5058028;28;19950;-72
2022/11/11 12:37:08;;;;;;;;;;;;;;;12.26;93.12;97995.03;5068920;28;19997;-73
2022/11/11 12:39:40;;;;;;;;;;;;;;;12.53;93.21;97990.78;5065789;28;20513;-73
2022/11/11 12:42:25;;;;;;;;;;;;;;;12.77;91.31;97985.09;5057995;28;19956;-72
2022/11/11 12:44:59;;;;;;;;;;;;;;;12.90;88.04;97960.66;5059652;28;19952;-73
2022/11/11 12:47:24;;;;;;;;;;;;;;;12.89;87.75;97960.81;5069362;28;19950;-73
2022/11/11 12:49:56;;;;;;;;;;;;;;;12.82;88.04;97960.81;5064974;28;19955;-72
2022/11/11 12:52:22;;;;;;;;;;;;;;;12.78;88.73;97962.19;5062221;28;19957;-72
2022/11/11 12:55:07;;;;;;;;;;;;;;;12.69;86.95;97950.22;5070569;28;19948;-73
2022/11/11 12:57:32;;;;;;;;;;;;;;;12.56;85.80;97949.13;5071624;28;19967;-73
2022/11/11 12:59:58;;;;;;;;;;;;;;;12.48;86.93;97959.00;5066983;28;20359;-73
2022/11/11 13:02:43;;;;;;;;;;;;;;;12.46;87.08;97961.81;5064524;28;20332;-73
2022/11/11 13:05:25;;;;;;;;;;;;;;;12.44;86.42;97960.38;5057611;28;19949;-72
2022/11/11 13:08:00;;;;;;;;;;;;;;;12.38;87.53;97970.66;5043442;28;19945;-73
2022/11/11 13:10:39;;;;;;;;;;;;;;;12.39;86.86;97958.34;5064006;28;19955;-72
2022/11/11 13:13:14;;;;;;;;;;;;;;;12.38;88.85;97973.28;5071354;28;19955;-72
2022/11/11 13:15:40;;;;;;;;;;;;;;;12.37;88.54;97970.88;5064892;28;19959;-72
2022/11/11 13:18:14;;;;;;;;;;;;;;;12.37;88.46;97969.03;5056713;28;20033;-73
2022/11/11 13:20:40;;;;;;;;;;;;;;;12.38;88.66;97960.13;5064942;28;19956;-73
2022/11/11 13:23:10;;;;;;;;;;;;;;;12.43;90.04;97962.22;5071822;28;19971;-73
2022/11/11 13:25:38;;;;;;;;;;;;;;;12.46;89.12;97974.16;5053534;28;19952;-73
2022/11/11 13:28:07;;;;;;;;;;;;;;;12.48;89.21;97975.59;5065370;28;19951;-73
2022/11/11 13:30:36;;;;;;;;;;;;;;;12.46;88.50;97972.34;5061330;28;19959;-72
2022/11/11 13:33:23;;;;;;;;;;;;;;;12.44;88.45;97970.91;5055833;28;19947;-73
2022/11/11 13:36:08;;;;;;;;;;;;;;;12.45;90.16;97975.16;5067463;28;19951;-72
2022/11/11 13:38:36;;;;;;;;;;;;;;;12.44;88.94;97958.56;5061534;28;19955;-71
2022/11/11 13:41:04;;;;;;;;;;;;;;;12.43;88.04;97961.38;5066324;28;20427;-72
2022/11/11 13:43:38;;;;;;;;;;;;;;;12.39;88.59;97963.59;5071060;28;19969;-73
2022/11/11 13:46:05;;;;;;;;;;;;;;;12.40;89.38;97970.47;5067913;28;19949;-73
2022/11/11 13:48:30;;;;;;;;;;;;;;;12.41;90.80;97977.38;5065145;28;19953;-72
2022/11/11 13:51:19;;;;;;;;;;;;;;;12.39;89.05;97974.94;5064961;28;20003;-72
2022/11/11 13:53:46;;;;;;;;;;;;;;;12.35;89.22;97972.88;5054762;28;19958;-73
2022/11/11 13:56:21;;;;;;;;;;;;;;;12.31;90.41;97985.59;5065846;28;19952;-73
2022/11/11 13:58:48;;;;;;;;;;;;;;;12.33;90.37;97990.66;5064586;28;19947;-72
2022/11/11 14:01:15;;;;;;;;;;;;;;;12.33;90.36;97977.50;5066126;28;19957;-72
2022/11/11 14:03:43;;;;;;;;;;;;;;;12.31;89.56;97977.69;5058789;28;19966;-72
2022/11/11 14:06:12;;;;;;;;;;;;;;;12.30;90.29;97989.19;5066133;28;20381;-73
2022/11/11 14:08:44;;;;;;;;;;;;;;;12.28;90.37;97987.78;5065287;28;19983;-72
2022/11/11 14:11:22;;;;;;;;;;;;;;;12.27;90.54;97975.63;5067190;28;19950;-72
2022/11/11 14:13:48;;;;;;;;;;;;;;;12.26;90.56;97980.06;5051473;28;19956;-73
2022/11/11 14:16:37;;;;;;;;;;;;;;;12.23;89.32;97972.56;5058703;28;20445;-72
2022/11/11 14:19:18;;;;;;;;;;;;;;;12.21;89.83;97979.84;5065091;28;19961;-73